Banjarmasin/Syamsudin Noor Airport

Airport
ICAO code: 
WAOO
IATA Code: 
BDJ
Summary
ICAO Region: 
APAC
Territory: 
Location: 
Banjarbaru, Kalimantan Selatan
Serving: 
Banjarmasin
Elevation: 
66 ft
Coordinates: 
Aerial View: 
3° 26' 32.482" S, 114° 45' 45.191" E
Metar
Observation
WAOO 170330Z 35007KT 9999 FEW017 30/24 Q1010 NOSIG
Station
SYAMSUDIN NOOR
Date/Time
2022-01-17 03:30:00
Wind direction
350°
Wind speed
07 kts
Lowest cloud amount
few clouds
Temperature
30°C
Dew point
24°C
Humidity
70%
QNH
1010 hPa
Weather condition
n/a

Runways

Designator Length Width Surface Rops
10/28 2500 45 ASP Yes/Yes
Airport map: 
Aerial View: 

SKYbrary Partners:

Safety knowledge contributed by: